Time;durP1;ratioP1;P1;durP2;ratioP2;P2;SDS_P1;SDS_P2;PMS_P1;PMS_P2;Temp;Humidity;BMP_temperature;BMP_pressure;BME280_temperature;BME280_humidity;BME280_pressure;Samples;Min_cycle;Max_cycle;Signal;HPM_P1;HPM_P2
2023/12/23 00:01:57;;;;;;;7.28;0.50;;;;;;;4.73;55.04;98999.03;5012258;28;20026;-40
2023/12/23 00:04:23;;;;;;;0.30;0.20;;;;;;;4.80;55.10;99015.13;5017820;28;20043;-39
2023/12/23 00:06:48;;;;;;;4.20;0.60;;;;;;;4.60;55.44;99011.16;5014060;28;20041;-39
2023/12/23 00:09:16;;;;;;;1.80;0.50;;;;;;;4.52;55.86;99022.03;5008088;28;20034;-40
2023/12/23 00:11:42;;;;;;;0.65;0.28;;;;;;;4.82;55.10;99028.91;5013214;28;20127;-41
2023/12/23 00:14:07;;;;;;;1.98;0.35;;;;;;;4.67;55.64;99038.50;5012508;28;20113;-41
2023/12/23 00:16:33;;;;;;;4.35;0.93;;;;;;;4.93;55.08;99045.66;5012046;28;20110;-41
2023/12/23 00:19:00;;;;;;;7.07;0.40;;;;;;;4.96;54.83;99050.69;5013241;28;20504;-39
2023/12/23 00:21:26;;;;;;;1.10;0.40;;;;;;;4.85;55.13;99039.16;5012673;28;20033;-41
2023/12/23 00:23:51;;;;;;;3.17;1.05;;;;;;;4.94;55.09;99079.47;5014058;28;20060;-41
2023/12/23 00:26:16;;;;;;;0.45;0.30;;;;;;;4.59;55.78;99074.59;5005021;28;20041;-41
2023/12/23 00:28:42;;;;;;;3.72;0.55;;;;;;;4.91;55.14;99060.56;5012831;28;20526;-42
2023/12/23 00:31:07;;;;;;;2.10;0.35;;;;;;;4.63;55.68;99054.41;5011544;28;20059;-38
2023/12/23 00:33:32;;;;;;;5.28;0.60;;;;;;;4.46;56.61;99053.66;5021787;28;20070;-38
2023/12/23 00:35:58;;;;;;;1.90;0.40;;;;;;;4.56;56.29;99065.22;5021353;28;20053;-38
2023/12/23 00:38:23;;;;;;;1.02;0.22;;;;;;;4.58;56.13;99068.56;5010590;28;20040;-39
2023/12/23 00:40:48;;;;;;;0.32;0.30;;;;;;;4.36;57.00;99073.34;5016848;28;20037;-37
2023/12/23 00:43:14;;;;;;;5.13;1.90;;;;;;;4.46;56.62;99099.69;5009987;28;20036;-40
2023/12/23 00:45:39;;;;;;;1.75;0.20;;;;;;;4.32;57.27;99090.06;5005598;28;20431;-39
2023/12/23 00:48:07;;;;;;;0.20;0.20;;;;;;;4.43;57.03;99095.50;5010950;28;20071;-39
2023/12/23 00:50:34;;;;;;;0.38;0.30;;;;;;;4.28;56.90;99107.66;5012617;28;20061;-38
2023/12/23 00:53:02;;;;;;;0.28;0.20;;;;;;;4.65;56.56;99115.94;5010468;28;20566;-42
2023/12/23 00:55:27;;;;;;;2.17;0.57;;;;;;;4.39;57.34;99109.63;5013472;28;20052;-39
2023/12/23 00:57:52;;;;;;;1.38;0.50;;;;;;;4.42;57.54;99109.47;5006728;28;20038;-40
2023/12/23 01:00:18;;;;;;;2.80;0.28;;;;;;;4.29;57.63;99126.72;5011869;28;20041;-39
2023/12/23 01:02:43;;;;;;;0.45;0.20;;;;;;;4.41;57.17;99123.41;5011960;28;20037;-41
2023/12/23 01:05:09;;;;;;;0.47;0.15;;;;;;;4.42;57.20;99130.31;4996412;28;20037;-39
2023/12/23 01:07:35;;;;;;;2.45;0.57;;;;;;;4.42;57.61;99151.13;5016104;28;20033;-39
2023/12/23 01:10:00;;;;;;;9.02;0.47;;;;;;;4.16;57.87;99140.44;5011823;28;20549;-39
2023/12/23 01:12:26;;;;;;;2.47;0.75;;;;;;;4.47;57.15;99156.91;5015386;28;20033;-40
2023/12/23 01:14:51;;;;;;;3.25;0.50;;;;;;;4.45;57.58;99150.97;5011584;28;20471;-39
2023/12/23 01:17:17;;;;;;;5.22;0.60;;;;;;;4.48;57.36;99161.19;5003583;28;20173;-42
2023/12/23 01:19:42;;;;;;;1.02;0.40;;;;;;;4.36;57.33;99151.47;5013419;28;20044;-39
2023/12/23 01:22:07;;;;;;;2.72;0.60;;;;;;;4.35;57.37;99183.66;5013287;28;20069;-40
2023/12/23 01:24:33;;;;;;;0.52;0.22;;;;;;;4.34;57.36;99195.00;5011391;28;20025;-38
2023/12/23 01:26:58;;;;;;;1.08;0.30;;;;;;;4.46;56.72;99209.94;5011750;28;20179;-41
2023/12/23 01:29:24;;;;;;;1.60;0.40;;;;;;;4.78;56.55;99204.63;5011207;28;20074;-39
2023/12/23 01:31:49;;;;;;;0.10;0.10;;;;;;;4.45;57.00;99207.41;5003563;28;20045;-38
2023/12/23 01:34:15;;;;;;;3.83;0.73;;;;;;;4.39;56.43;99224.22;5007946;28;20068;-39
2023/12/23 01:36:40;;;;;;;0.43;0.20;;;;;;;4.65;56.31;99271.41;5012203;28;20034;-40
2023/12/23 01:39:05;;;;;;;5.18;2.22;;;;;;;4.76;56.18;99227.34;5015887;28;20042;-39
2023/12/23 01:41:31;;;;;;;1.17;0.40;;;;;;;4.51;56.29;99233.13;5015366;28;20108;-39
2023/12/23 01:43:56;;;;;;;1.15;0.30;;;;;;;4.46;56.26;99240.34;5019955;28;20450;-39
2023/12/23 01:46:22;;;;;;;0.80;0.35;;;;;;;4.37;56.26;99228.69;5021877;28;20033;-41
2023/12/23 01:48:48;;;;;;;0.15;0.13;;;;;;;4.60;55.85;99234.38;5008045;28;20043;-41
2023/12/23 01:51:14;;;;;;;0.40;0.30;;;;;;;4.38;55.92;99265.06;5015533;28;20041;-38
2023/12/23 01:53:41;;;;;;;0.17;0.17;;;;;;;4.58;55.92;99250.94;5015053;28;20096;-40
2023/12/23 01:56:07;;;;;;;0.45;0.30;;;;;;;4.48;55.46;99260.16;5014575;28;20538;-41
2023/12/23 01:58:33;;;;;;;0.10;0.10;;;;;;;4.71;55.39;99258.88;5015665;28;20061;-38
2023/12/23 02:00:59;;;;;;;0.55;0.55;;;;;;;4.34;55.70;99258.34;5013037;28;20488;-38
2023/12/23 02:03:24;;;;;;;1.90;0.38;;;;;;;4.43;55.88;99251.78;5010821;28;20092;-40
2023/12/23 02:05:50;;;;;;;1.65;0.30;;;;;;;4.58;55.54;99250.94;5015657;28;20464;-38
2023/12/23 02:08:15;;;;;;;0.10;0.10;;;;;;;4.57;55.99;99264.88;5009975;28;20029;-38
2023/12/23 02:10:41;;;;;;;1.65;0.35;;;;;;;4.46;56.03;99275.06;5014655;28;20083;-41
2023/12/23 02:13:26;;;;;;;0.30;0.30;;;;;;;4.64;56.04;99275.78;5014824;28;20084;-41
2023/12/23 02:15:52;;;;;;;3.15;0.60;;;;;;;4.32;56.46;99307.06;5015168;28;20066;-39
2023/12/23 02:18:19;;;;;;;3.40;0.40;;;;;;;4.53;56.11;99292.00;5014537;28;20045;-38
2023/12/23 02:20:51;;;;;;;2.33;0.75;;;;;;;4.33;56.94;99289.66;5014489;28;20044;-38
2023/12/23 02:23:17;;;;;;;2.95;0.30;;;;;;;4.43;56.06;99289.09;5015651;28;20025;-38
2023/12/23 02:25:49;;;;;;;7.50;0.88;;;;;;;4.37;56.63;99299.00;5006858;28;20038;-38
2023/12/23 02:28:17;;;;;;;2.53;0.57;;;;;;;4.53;55.63;99305.03;5016608;28;20021;-38
2023/12/23 02:30:46;;;;;;;0.47;0.20;;;;;;;4.38;56.37;99305.91;5015977;28;20072;-38
2023/12/23 02:33:11;;;;;;;5.47;0.63;;;;;;;4.18;56.49;99309.59;5015643;28;20048;-38
2023/12/23 02:35:37;;;;;;;4.13;0.77;;;;;;;4.41;56.05;99297.91;5016839;28;20025;-38
2023/12/23 02:38:02;;;;;;;0.55;0.25;;;;;;;4.23;56.08;99287.59;5010203;28;20540;-38
2023/12/23 02:40:28;;;;;;;1.85;0.52;;;;;;;4.51;55.64;99295.66;5015317;28;20033;-38
2023/12/23 02:42:53;;;;;;;0.55;0.30;;;;;;;4.46;55.77;99295.91;5015796;28;20037;-38
2023/12/23 02:45:18;;;;;;;2.20;0.80;;;;;;;4.03;57.34;99321.66;5006526;28;20135;-38
2023/12/23 02:47:44;;;;;;;1.10;0.32;;;;;;;4.29;56.38;99322.84;5012701;28;20029;-38
2023/12/23 02:50:09;;;;;;;0.75;0.47;;;;;;;4.14;55.70;99324.53;5012862;28;20045;-38
2023/12/23 02:52:35;;;;;;;0.73;0.47;;;;;;;4.23;56.21;99326.63;5013602;28;20036;-38
2023/12/23 02:55:00;;;;;;;0.68;0.40;;;;;;;4.32;55.84;99332.25;5012802;28;20036;-38
2023/12/23 02:57:26;;;;;;;2.42;0.65;;;;;;;4.22;56.25;99335.38;5018848;28;20067;-37
2023/12/23 02:59:51;;;;;;;0.93;0.50;;;;;;;4.29;56.16;99345.47;5017997;28;20113;-38
2023/12/23 03:02:16;;;;;;;0.25;0.20;;;;;;;4.38;55.86;99347.56;5008259;28;20037;-38
2023/12/23 03:04:42;;;;;;;2.08;0.38;;;;;;;4.35;56.54;99329.50;5015115;28;20056;-38
2023/12/23 03:07:08;;;;;;;0.85;0.35;;;;;;;4.13;56.39;99348.91;5016401;28;20112;-38
2023/12/23 03:09:35;;;;;;;1.98;0.45;;;;;;;4.44;56.28;99357.66;5020764;28;20554;-38
2023/12/23 03:12:00;;;;;;;0.40;0.40;;;;;;;4.20;57.01;99378.88;5020036;28;20030;-38
2023/12/23 03:14:25;;;;;;;0.25;0.17;;;;;;;4.33;56.87;99375.59;5019021;28;20404;-39
2023/12/23 03:16:51;;;;;;;1.65;0.30;;;;;;;4.14;57.53;99374.00;5019319;28;20037;-38
2023/12/23 03:19:16;;;;;;;0.20;0.20;;;;;;;4.08;58.13;99379.53;5020560;28;20128;-38
2023/12/23 03:21:46;;;;;;;1.63;0.40;;;;;;;4.24;57.58;99385.59;5010041;28;20041;-38
2023/12/23 03:24:11;;;;;;;1.45;0.50;;;;;;;4.00;58.10;99399.94;5012210;28;21014;-38
2023/12/23 03:26:37;;;;;;;0.10;0.10;;;;;;;4.25;57.81;99400.31;5014316;28;20057;-39
2023/12/23 03:29:05;;;;;;;0.63;0.30;;;;;;;4.24;57.70;99389.97;5009755;28;21018;-38
2023/12/23 03:31:30;;;;;;;1.10;0.30;;;;;;;3.96;57.98;99404.44;5019003;28;20038;-39
2023/12/23 03:33:55;;;;;;;0.28;0.28;;;;;;;4.16;57.68;99405.16;5015395;28;20084;-38
2023/12/23 03:36:21;;;;;;;0.55;0.38;;;;;;;4.30;57.21;99392.25;5016091;28;20091;-40
2023/12/23 03:38:46;;;;;;;3.55;0.30;;;;;;;3.92;57.90;99408.13;5007470;28;21170;-41
2023/12/23 03:41:12;;;;;;;6.30;0.90;;;;;;;4.43;56.87;99410.69;5013625;28;20053;-39
2023/12/23 03:43:37;;;;;;;2.80;0.40;;;;;;;4.17;56.83;99407.66;5015756;28;20041;-38
2023/12/23 03:46:03;;;;;;;0.30;0.30;;;;;;;4.32;56.69;99415.59;5017449;28;20029;-40
2023/12/23 03:48:28;;;;;;;0.47;0.40;;;;;;;4.31;56.71;99432.16;5013973;28;21460;-38
2023/12/23 03:50:53;;;;;;;0.60;0.28;;;;;;;4.16;56.49;99418.19;5014856;28;20079;-37
2023/12/23 03:53:19;;;;;;;5.25;0.40;;;;;;;4.35;56.65;99416.28;5006988;28;21266;-38
2023/12/23 03:55:44;;;;;;;1.52;0.30;;;;;;;4.30;55.90;99446.94;5008723;28;20025;-38
2023/12/23 03:58:09;;;;;;;0.10;0.10;;;;;;;4.17;56.33;99423.28;5008889;28;20128;-38
2023/12/23 04:00:35;;;;;;;0.55;0.40;;;;;;;4.23;56.23;99417.78;5014741;28;20547;-40
2023/12/23 04:03:00;;;;;;;2.72;0.30;;;;;;;4.17;56.40;99435.47;5002001;28;20061;-37
2023/12/23 04:05:26;;;;;;;1.55;0.30;;;;;;;3.74;56.92;99426.34;5016913;28;20037;-39
2023/12/23 04:07:51;;;;;;;1.95;0.50;;;;;;;3.85;57.00;99418.00;5016858;28;20041;-40
2023/12/23 04:10:17;;;;;;;0.40;0.40;;;;;;;4.23;56.22;99430.78;5011159;28;22089;-38
2023/12/23 04:12:43;;;;;;;1.30;0.57;;;;;;;4.16;56.28;99437.22;5012676;28;20541;-40
2023/12/23 04:15:08;;;;;;;0.45;0.30;;;;;;;3.97;56.36;99427.78;5014493;28;20041;-38
2023/12/23 04:17:34;;;;;;;0.20;0.20;;;;;;;4.06;56.35;99438.63;5014115;28;20021;-40
2023/12/23 04:20:00;;;;;;;1.38;0.30;;;;;;;4.17;56.25;99446.72;5013622;28;20079;-39
2023/12/23 04:22:25;;;;;;;3.33;0.45;;;;;;;4.08;56.14;99442.00;5001905;28;20025;-38
2023/12/23 04:24:51;;;;;;;3.10;0.50;;;;;;;4.37;55.47;99447.44;5009159;28;20041;-42
2023/12/23 04:27:17;;;;;;;1.65;0.75;;;;;;;3.91;56.59;99461.94;5007083;28;20029;-41
2023/12/23 04:29:42;;;;;;;1.65;0.55;;;;;;;4.17;55.69;99457.13;5004223;28;20033;-39
2023/12/23 04:32:08;;;;;;;4.07;0.40;;;;;;;3.66;56.79;99470.13;5009914;28;20079;-39
2023/12/23 04:34:33;;;;;;;1.90;0.40;;;;;;;4.14;56.19;99459.94;4977463;28;20040;-40
2023/12/23 04:36:58;;;;;;;0.40;0.38;;;;;;;4.26;55.43;99485.31;5005419;28;20042;-42
2023/12/23 04:39:24;;;;;;;0.20;0.20;;;;;;;3.80;56.09;99475.47;5011900;28;20037;-38
2023/12/23 04:41:50;;;;;;;0.57;0.40;;;;;;;3.98;56.39;99470.25;5015608;28;20587;-40
2023/12/23 04:44:16;;;;;;;0.47;0.28;;;;;;;4.05;56.15;99466.44;5006475;28;20172;-41
2023/12/23 04:46:42;;;;;;;2.45;0.40;;;;;;;4.24;55.62;99466.31;5006411;28;20033;-38
2023/12/23 04:49:08;;;;;;;10.73;2.95;;;;;;;4.14;55.67;99485.97;5013716;28;20034;-40
2023/12/23 04:51:34;;;;;;;2.83;0.85;;;;;;;4.20;55.40;99454.38;5006251;28;20037;-40
2023/12/23 04:53:59;;;;;;;0.80;0.40;;;;;;;4.11;55.77;99460.06;5012832;28;20037;-42
2023/12/23 04:56:25;;;;;;;1.50;0.28;;;;;;;3.96;56.33;99464.28;5012979;28;20611;-41
2023/12/23 04:58:50;;;;;;;1.17;0.57;;;;;;;4.24;55.63;99445.50;5015047;28;20037;-40
2023/12/23 05:01:16;;;;;;;2.47;1.48;;;;;;;4.08;55.62;99455.03;5012734;28;20034;-41
2023/12/23 05:03:41;;;;;;;6.13;1.13;;;;;;;4.18;55.58;99450.19;5028062;28;20492;-39
2023/12/23 05:06:07;;;;;;;3.05;0.52;;;;;;;3.90;55.99;99455.03;5014635;28;20040;-40
2023/12/23 05:08:32;;;;;;;1.13;0.28;;;;;;;3.95;56.27;99440.03;5007817;28;20041;-40
2023/12/23 05:10:58;;;;;;;0.25;0.25;;;;;;;4.15;55.94;99446.00;5013709;28;20061;-39
2023/12/23 05:13:24;;;;;;;3.75;0.30;;;;;;;3.95;56.07;99437.44;5016011;28;20061;-42
2023/12/23 05:15:50;;;;;;;2.88;0.63;;;;;;;4.12;55.71;99440.94;5014473;28;20119;-40
2023/12/23 05:18:15;;;;;;;0.43;0.30;;;;;;;4.09;55.72;99426.28;5016254;28;20048;-40
2023/12/23 05:20:40;;;;;;;0.20;0.20;;;;;;;3.48;56.35;99448.47;5010772;28;20116;-38
2023/12/23 05:23:06;;;;;;;0.60;0.30;;;;;;;4.19;55.76;99431.03;5013090;28;20037;-39
2023/12/23 05:25:31;;;;;;;0.38;0.30;;;;;;;4.28;55.61;99430.53;5010184;28;20037;-39
2023/12/23 05:27:56;;;;;;;0.25;0.13;;;;;;;4.47;55.15;99424.38;5011524;28;20037;-40
2023/12/23 05:30:22;;;;;;;1.20;0.60;;;;;;;4.44;54.91;99441.00;5012221;28;20076;-40
2023/12/23 05:32:47;;;;;;;3.08;0.50;;;;;;;4.02;55.54;99435.34;5006439;28;21680;-41
2023/12/23 05:35:12;;;;;;;0.30;0.28;;;;;;;4.51;55.36;99425.91;5014029;28;20551;-39
2023/12/23 05:37:38;;;;;;;0.82;0.40;;;;;;;4.39;55.48;99432.59;5010736;28;20033;-41
2023/12/23 05:40:05;;;;;;;8.90;0.65;;;;;;;4.27;55.89;99440.13;5010671;28;20026;-41
2023/12/23 05:42:30;;;;;;;1.63;0.40;;;;;;;4.34;55.92;99431.97;5016617;28;20044;-40
2023/12/23 05:44:56;;;;;;;2.22;0.52;;;;;;;4.57;55.39;99425.53;5013731;28;20029;-39
2023/12/23 05:47:21;;;;;;;0.55;0.17;;;;;;;3.86;57.48;99421.44;5013832;28;20035;-39
2023/12/23 05:49:47;;;;;;;4.60;0.50;;;;;;;4.32;56.55;99442.50;5014633;28;20033;-39
2023/12/23 05:52:12;;;;;;;19.15;2.83;;;;;;;4.27;56.95;99419.31;5005396;28;20044;-40
2023/12/23 05:54:37;;;;;;;2.35;0.93;;;;;;;4.31;56.85;99421.75;5012006;28;20033;-39
2023/12/23 05:57:03;;;;;;;7.82;1.23;;;;;;;4.39;57.01;99429.97;5007538;28;20057;-40
2023/12/23 05:59:29;;;;;;;2.40;0.70;;;;;;;4.05;57.76;99436.94;5004834;28;20041;-39
2023/12/23 06:01:54;;;;;;;0.50;0.50;;;;;;;4.00;57.51;99437.19;5009476;28;20040;-39
2023/12/23 06:04:19;;;;;;;4.53;0.47;;;;;;;4.34;57.17;99434.59;5002236;28;20131;-40
2023/12/23 06:06:45;;;;;;;2.17;0.60;;;;;;;4.51;56.84;99431.94;5004987;28;20022;-38
2023/12/23 06:09:10;;;;;;;1.20;0.40;;;;;;;4.02;57.69;99426.69;5004315;28;20515;-39
2023/12/23 06:11:36;;;;;;;3.10;0.38;;;;;;;3.98;57.88;99433.81;5003228;28;20106;-39
2023/12/23 06:14:02;;;;;;;2.63;0.60;;;;;;;4.34;57.29;99430.22;5006983;28;20057;-38
2023/12/23 06:16:27;;;;;;;2.38;0.77;;;;;;;4.36;57.62;99424.94;5005833;28;20041;-39
2023/12/23 06:18:52;;;;;;;5.95;0.80;;;;;;;4.32;57.91;99426.00;5020615;28;20033;-38
2023/12/23 06:21:18;;;;;;;2.38;0.75;;;;;;;4.41;57.35;99430.75;5015958;28;20871;-38
2023/12/23 06:23:43;;;;;;;3.65;0.77;;;;;;;4.31;57.71;99438.22;5013615;28;20496;-37
2023/12/23 06:26:12;;;;;;;12.40;1.02;;;;;;;4.51;57.51;99416.31;5014742;28;20048;-38
2023/12/23 06:28:37;;;;;;;6.15;0.90;;;;;;;4.48;57.27;99432.09;5008113;28;20029;-38
2023/12/23 06:31:03;;;;;;;6.60;0.50;;;;;;;4.64;56.98;99418.25;5016882;28;20041;-38
2023/12/23 06:33:28;;;;;;;3.13;0.50;;;;;;;4.43;57.95;99423.69;5008930;28;20862;-38
2023/12/23 06:35:53;;;;;;;8.02;0.77;;;;;;;4.54;57.34;99416.13;5009050;28;20136;-39
2023/12/23 06:38:19;;;;;;;4.95;0.98;;;;;;;4.80;56.71;99408.66;5008240;28;20111;-39
2023/12/23 06:40:44;;;;;;;2.53;0.47;;;;;;;4.59;57.51;99428.91;5013453;28;20072;-39
2023/12/23 06:43:10;;;;;;;10.93;1.45;;;;;;;4.61;56.88;99434.06;5009064;28;20667;-39
2023/12/23 06:45:35;;;;;;;3.55;0.65;;;;;;;4.76;56.79;99420.19;5017787;28;20043;-40
2023/12/23 06:48:01;;;;;;;2.28;0.43;;;;;;;4.46;57.12;99427.91;5010419;28;20033;-40
2023/12/23 06:50:26;;;;;;;4.57;0.50;;;;;;;5.05;55.90;99415.13;5017270;28;20061;-38
2023/12/23 06:52:51;;;;;;;1.65;0.30;;;;;;;4.78;56.57;99433.97;5013603;28;20484;-38
2023/12/23 06:55:17;;;;;;;1.20;0.50;;;;;;;4.79;56.51;99422.59;5014983;28;20068;-39
2023/12/23 06:57:43;;;;;;;8.00;0.98;;;;;;;5.01;56.39;99418.81;5018099;28;20060;-39
2023/12/23 07:00:09;;;;;;;3.30;1.17;;;;;;;4.80;56.77;99445.16;5011575;28;20034;-40
2023/12/23 07:02:35;;;;;;;5.53;1.10;;;;;;;4.91;56.52;99415.88;5014615;28;20029;-40
2023/12/23 07:05:01;;;;;;;2.15;0.35;;;;;;;4.42;57.36;99424.63;5015555;28;21825;-39
2023/12/23 07:07:26;;;;;;;4.68;1.42;;;;;;;4.95;56.30;99419.16;5019066;28;20030;-38
2023/12/23 07:09:52;;;;;;;1.48;0.43;;;;;;;5.03;55.96;99411.78;5014898;28;20030;-39
2023/12/23 07:12:17;;;;;;;4.85;0.77;;;;;;;4.95;55.88;99427.84;5013260;28;20038;-39
2023/12/23 07:14:43;;;;;;;5.70;0.88;;;;;;;5.23;55.96;99417.59;5012807;28;20492;-39
2023/12/23 07:17:08;;;;;;;3.95;0.70;;;;;;;4.87;56.70;99425.66;5011011;28;20033;-39
2023/12/23 07:19:34;;;;;;;2.95;0.52;;;;;;;5.05;56.63;99412.53;5014652;28;20549;-37
2023/12/23 07:21:59;;;;;;;6.45;1.15;;;;;;;5.26;55.94;99405.25;5014118;28;20037;-39
2023/12/23 07:24:24;;;;;;;9.00;0.88;;;;;;;5.00;56.55;99407.53;5018025;28;20041;-39
2023/12/23 07:26:50;;;;;;;8.30;1.15;;;;;;;5.35;56.19;99403.88;5020983;28;20132;-41
2023/12/23 07:29:16;;;;;;;3.05;0.77;;;;;;;5.06;57.07;99414.22;5019081;28;20032;-40
2023/12/23 07:31:42;;;;;;;4.32;0.70;;;;;;;5.23;56.52;99410.63;5002410;28;20038;-39
2023/12/23 07:34:08;;;;;;;7.22;1.27;;;;;;;5.19;57.00;99409.97;5001938;28;20364;-40
2023/12/23 07:36:33;;;;;;;1.13;0.47;;;;;;;5.33;57.00;99414.38;5018597;28;20041;-42
2023/12/23 07:38:59;;;;;;;5.30;0.88;;;;;;;5.40;56.98;99419.28;5004822;28;20460;-37
2023/12/23 07:41:26;;;;;;;2.13;0.70;;;;;;;5.27;57.12;99403.47;5004831;28;20029;-42
2023/12/23 07:43:52;;;;;;;2.80;0.80;;;;;;;5.28;57.20;99395.56;4999865;28;20030;-41
2023/12/23 07:46:17;;;;;;;14.52;1.15;;;;;;;5.23;56.97;99397.59;5004426;28;20067;-38
2023/12/23 07:48:43;;;;;;;2.72;0.52;;;;;;;5.06;57.70;99400.31;5001029;28;20030;-39
2023/12/23 07:51:09;;;;;;;3.70;0.73;;;;;;;5.33;57.82;99395.31;5007718;28;20807;-42
2023/12/23 07:53:35;;;;;;;1.80;0.70;;;;;;;5.18;57.78;99402.22;5019180;28;20041;-40
2023/12/23 07:56:01;;;;;;;5.25;1.00;;;;;;;5.40;57.50;99399.22;5015076;28;20033;-40
2023/12/23 07:58:27;;;;;;;6.13;0.93;;;;;;;5.40;57.45;99394.00;5005833;28;20031;-41
2023/12/23 08:00:52;;;;;;;1.92;0.90;;;;;;;5.07;58.24;99402.81;5012082;28;20126;-41
2023/12/23 08:03:18;;;;;;;7.18;0.93;;;;;;;5.23;58.13;99413.25;5013696;28;20464;-40
2023/12/23 08:05:43;;;;;;;6.22;0.50;;;;;;;5.31;57.92;99410.19;5009674;28;20042;-42
2023/12/23 08:08:10;;;;;;;2.83;1.02;;;;;;;5.27;57.94;99398.25;5010659;28;20052;-42
2023/12/23 08:10:37;;;;;;;8.30;1.70;;;;;;;5.51;57.63;99400.41;5007916;28;20079;-40
2023/12/23 08:13:03;;;;;;;8.65;1.08;;;;;;;5.28;58.42;99405.16;5018237;28;20037;-41
2023/12/23 08:15:28;;;;;;;6.13;1.23;;;;;;;5.45;57.95;99389.38;5013124;28;20036;-40
2023/12/23 08:17:53;;;;;;;5.20;0.80;;;;;;;5.34;58.33;99399.59;5007199;28;20079;-41
2023/12/23 08:20:19;;;;;;;10.68;1.10;;;;;;;5.28;58.67;99386.91;5014582;28;20021;-40
2023/12/23 08:22:44;;;;;;;2.25;0.85;;;;;;;5.12;59.03;99389.56;5005025;28;20041;-39
2023/12/23 08:25:10;;;;;;;6.32;1.30;;;;;;;5.45;58.20;99397.19;4998327;28;20037;-40
2023/12/23 08:27:38;;;;;;;7.22;1.38;;;;;;;5.64;57.76;99401.34;5009048;28;20026;-40
2023/12/23 08:30:04;;;;;;;6.50;0.70;;;;;;;5.51;58.32;99393.38;5004583;28;20056;-40
2023/12/23 08:32:29;;;;;;;7.47;2.15;;;;;;;5.54;57.79;99405.41;5008946;28;20044;-42
2023/12/23 08:34:56;;;;;;;7.05;1.15;;;;;;;5.55;57.74;99391.44;5012204;28;20171;-40
2023/12/23 08:37:22;;;;;;;10.13;2.97;;;;;;;5.62;57.78;99398.00;5020593;28;20037;-42
2023/12/23 08:39:48;;;;;;;4.15;0.98;;;;;;;5.41;58.00;99407.91;5008696;28;20037;-41
2023/12/23 08:42:13;;;;;;;3.88;0.98;;;;;;;5.55;58.19;99430.56;5015463;28;20407;-40
2023/12/23 08:44:38;;;;;;;1.13;0.57;;;;;;;5.69;57.63;99408.91;5006642;28;20518;-41
2023/12/23 08:47:04;;;;;;;4.72;1.02;;;;;;;5.52;57.90;99402.06;5002951;28;20060;-41
2023/12/23 08:49:29;;;;;;;3.85;1.63;;;;;;;5.60;58.31;99405.06;5009781;28;20037;-42
2023/12/23 08:51:55;;;;;;;2.90;1.00;;;;;;;5.76;57.95;99398.00;5005366;28;20044;-41
2023/12/23 08:54:20;;;;;;;5.38;1.20;;;;;;;5.78;57.48;99398.75;5004057;28;20037;-41
2023/12/23 08:56:45;;;;;;;2.03;1.13;;;;;;;5.63;58.37;99402.28;5009352;28;20041;-40
2023/12/23 08:59:11;;;;;;;4.00;0.55;;;;;;;5.86;57.71;99402.69;5008201;28;20037;-40
2023/12/23 09:01:36;;;;;;;8.13;1.45;;;;;;;5.82;57.48;99403.81;5004464;28;20032;-40
2023/12/23 09:04:02;;;;;;;4.95;1.45;;;;;;;5.59;57.78;99403.38;5001022;28;20886;-39
2023/12/23 09:06:27;;;;;;;13.90;1.52;;;;;;;5.72;57.67;99395.69;5013938;28;20109;-41
2023/12/23 09:08:54;;;;;;;3.13;0.98;;;;;;;6.00;57.03;99402.72;5007630;28;20066;-41
2023/12/23 09:11:20;;;;;;;4.18;0.85;;;;;;;5.91;57.46;99408.47;5006308;28;20334;-40
2023/12/23 09:13:45;;;;;;;9.38;1.20;;;;;;;5.94;56.47;99409.13;5017338;28;20515;-41
2023/12/23 09:16:11;;;;;;;6.78;0.80;;;;;;;5.86;57.04;99402.69;5016238;28;20029;-40
2023/12/23 09:18:36;;;;;;;11.68;0.90;;;;;;;5.62;57.66;99403.22;5016102;28;20030;-41
2023/12/23 09:21:01;;;;;;;3.88;1.40;;;;;;;6.05;57.38;99415.53;5021662;28;20057;-40
2023/12/23 09:23:27;;;;;;;0.77;0.55;;;;;;;5.88;57.48;99406.03;5014104;28;20048;-39
2023/12/23 09:25:52;;;;;;;7.03;0.98;;;;;;;5.86;57.11;99400.06;5011707;28;20117;-41
2023/12/23 09:28:18;;;;;;;6.45;1.15;;;;;;;5.74;57.96;99405.09;5009116;28;20052;-40
2023/12/23 09:30:43;;;;;;;6.03;0.90;;;;;;;5.92;56.95;99415.38;5011751;28;20030;-40
2023/12/23 09:33:11;;;;;;;4.78;1.33;;;;;;;6.09;56.89;99417.00;5013175;28;20042;-42
2023/12/23 09:35:36;;;;;;;7.78;1.20;;;;;;;6.19;56.39;99410.31;5001663;28;20025;-42
2023/12/23 09:38:03;;;;;;;6.75;1.02;;;;;;;5.64;57.18;99419.63;5013423;28;20499;-41
2023/12/23 09:40:30;;;;;;;7.47;1.95;;;;;;;5.69;57.38;99407.13;5013569;28;20159;-41
2023/12/23 09:42:56;;;;;;;2.67;0.40;;;;;;;5.83;56.86;99405.47;5018250;28;20026;-41
2023/12/23 09:45:22;;;;;;;9.90;0.80;;;;;;;5.84;56.44;99412.38;5010061;28;20025;-40
2023/12/23 09:47:47;;;;;;;2.60;1.33;;;;;;;5.88;56.85;99413.88;5010429;28;20029;-40
2023/12/23 09:50:13;;;;;;;8.82;1.65;;;;;;;5.82;56.68;99404.63;5010712;28;20060;-38
2023/12/23 09:52:39;;;;;;;2.20;0.52;;;;;;;5.63;56.57;99415.34;5013050;28;20049;-39
2023/12/23 09:55:09;;;;;;;2.63;0.55;;;;;;;5.69;55.88;99420.16;5005462;28;20117;-39
2023/12/23 09:57:35;;;;;;;2.97;0.43;;;;;;;5.40;56.53;99403.63;5016147;28;20037;-40
2023/12/23 10:00:01;;;;;;;3.60;0.75;;;;;;;5.63;55.85;99412.72;5015090;28;20037;-40
2023/12/23 10:02:26;;;;;;;1.77;0.68;;;;;;;5.67;56.00;99405.53;5011301;28;20038;-39
2023/12/23 10:04:52;;;;;;;3.80;0.60;;;;;;;5.84;55.90;99394.09;5015972;28;20048;-40
2023/12/23 10:07:17;;;;;;;4.47;0.60;;;;;;;5.73;55.71;99418.25;5011022;28;20073;-39
2023/12/23 10:09:42;;;;;;;2.08;0.52;;;;;;;5.98;55.06;99409.75;5016207;28;20116;-40
2023/12/23 10:12:08;;;;;;;5.75;0.45;;;;;;;5.64;55.70;99417.84;5007515;28;20044;-40
2023/12/23 10:14:33;;;;;;;8.00;1.17;;;;;;;5.97;54.94;99402.03;5013342;28;20065;-40
2023/12/23 10:16:59;;;;;;;3.75;0.63;;;;;;;5.89;54.75;99408.56;5013043;28;20034;-39
2023/12/23 10:19:24;;;;;;;5.05;0.65;;;;;;;5.70;55.10;99407.97;5005760;28;20411;-41
2023/12/23 10:21:50;;;;;;;2.08;0.40;;;;;;;6.00;54.28;99399.28;5012469;28;20025;-41
2023/12/23 10:24:16;;;;;;;2.00;0.45;;;;;;;5.94;54.86;99398.69;5013244;28;20068;-40
2023/12/23 10:26:42;;;;;;;3.72;0.68;;;;;;;5.67;55.67;99414.22;5018399;28;20052;-39
2023/12/23 10:29:10;;;;;;;0.85;0.77;;;;;;;5.91;54.73;99398.03;5012399;28;20417;-40
2023/12/23 10:31:37;;;;;;;4.93;0.40;;;;;;;5.61;55.52;99402.34;5013240;28;20042;-39
2023/12/23 10:34:10;;;;;;;2.28;0.60;;;;;;;5.91;54.95;99398.03;5028571;28;20029;-39
2023/12/23 10:36:38;;;;;;;1.38;0.68;;;;;;;5.72;54.87;99412.16;5007665;28;20029;-39
2023/12/23 10:39:09;;;;;;;1.25;0.95;;;;;;;5.88;54.67;99395.59;5012429;28;20030;-39
2023/12/23 10:42:02;;;;;;;3.17;0.63;;;;;;;5.75;55.31;99403.31;5013273;28;20024;-39
2023/12/23 10:44:29;;;;;;;5.80;0.50;;;;;;;5.58;55.77;99417.34;5018415;28;20037;-39
2023/12/23 10:46:56;;;;;;;5.25;0.77;;;;;;;5.56;55.61;99403.56;5021852;28;20037;-39
2023/12/23 10:49:23;;;;;;;4.65;1.38;;;;;;;5.86;55.03;99415.72;5014253;28;20068;-39
2023/12/23 10:51:50;;;;;;;0.73;0.35;;;;;;;5.82;55.24;99402.03;5014889;28;20038;-39
2023/12/23 10:54:15;;;;;;;6.20;0.77;;;;;;;5.86;55.11;99400.91;5011867;28;20572;-39
2023/12/23 10:56:41;;;;;;;0.45;0.40;;;;;;;5.58;55.64;99417.34;5009631;28;20044;-39
2023/12/23 10:59:10;;;;;;;1.90;0.70;;;;;;;5.87;55.30;99409.56;5010039;28;20493;-40
2023/12/23 11:01:38;;;;;;;1.77;0.40;;;;;;;5.82;55.77;99409.03;5014785;28;20029;-38
2023/12/23 11:04:05;;;;;;;4.60;0.65;;;;;;;5.57;56.40;99405.22;5023717;28;20065;-39
2023/12/23 11:06:35;;;;;;;2.65;0.68;;;;;;;5.93;55.75;99412.66;5019177;28;20038;-39
2023/12/23 11:09:02;;;;;;;7.68;0.57;;;;;;;5.62;56.56;99398.00;5022554;28;20026;-39
2023/12/23 11:11:29;;;;;;;5.65;0.95;;;;;;;5.75;56.74;99391.13;5024529;28;21089;-39
2023/12/23 11:13:55;;;;;;;1.80;0.40;;;;;;;5.66;57.22;99394.28;5023039;28;20117;-39
2023/12/23 11:16:20;;;;;;;6.35;1.02;;;;;;;5.66;56.52;99415.16;5022140;28;20116;-39
2023/12/23 11:18:46;;;;;;;3.25;0.57;;;;;;;5.58;56.98;99417.34;5016712;28;20037;-38
2023/12/23 11:21:19;;;;;;;3.38;0.73;;;;;;;5.59;56.87;99403.38;5011543;28;20044;-38
2023/12/23 11:23:45;;;;;;;4.22;1.17;;;;;;;5.91;56.53;99408.47;5014847;28;20044;-39
2023/12/23 11:26:39;;;;;;;0.77;0.40;;;;;;;5.82;56.62;99411.63;5017001;28;20033;-39
2023/12/23 11:29:05;;;;;;;5.72;1.00;;;;;;;6.03;56.56;99417.38;5022358;28;20485;-39
2023/12/23 11:31:31;;;;;;;13.48;0.95;;;;;;;5.74;56.77;99436.41;5022398;28;20096;-39
2023/12/23 11:33:59;;;;;;;7.13;0.98;;;;;;;6.08;56.47;99420.53;5025390;28;20038;-37
2023/12/23 11:36:24;;;;;;;2.03;0.50;;;;;;;5.75;56.96;99438.09;5022855;28;20048;-38